Beja Airport

Current Flights

Departures
Number Departure To Airline
Arrivals
Number Arrival From Airline
Info
Name: Beja Airport
Identifier:  BYJ/LPBJ
Local Time:  26. Jun 03:00
City
Flights per Day
0 flights
Distance: 887km (551mi)
Punctuality
80% (0 flights per day delayed)
Delay Average: 10 minutes
Current Weather
 18 C (Humidity: 72%)
  4kt (7km/h / 4mph) from 230°
  Few clouds at 2,500 feet (762 meter)
  9km (6 mi.)
 METAR LPBJ 260100Z 23004KT 9999 FEW025 18/13 Q1016

Current Delays

Departures
N/A
Arrivals
N/A

Destinations

Top Destinations
Airport Flights
per week
Seats
per week
  Toulouse (TLS) 0 - 0 0
  Lisbon (LIS) 0 154 0 22
  Paris (ORY) 0 62 0 8

Airlines & Planes

Top Airlines
Airline Flights
per Day
Seats
per Day
  Hi Fly Malta 0 8
  TAP - Air Portugal 0 17
Air Austral 0 8
Top Plane Types
Model Flights Seats
Airbus A380-800 0.1/day - 0
Airbus A319 0.1/day 17/day 17.6
Airbus A340-300 0.0/day 8/day 8.9
Airbus A330-200 0.0/day 8/day 8.866666666666667